createdAt,value
2019-01-16T00:01:52.389Z,83.01
2019-01-16T00:04:35.095Z,82.85
2019-01-16T00:07:20.838Z,82.88
2019-01-16T00:09:57.464Z,83.24
2019-01-16T00:12:52.026Z,83.34
2019-01-16T00:15:36.595Z,83.18
2019-01-16T00:18:32.939Z,83.22
2019-01-16T00:21:23.023Z,83.07
2019-01-16T00:24:13.409Z,83.32
2019-01-16T00:27:06.668Z,83.04
2019-01-16T00:30:03.676Z,82.96
2019-01-16T00:32:50.999Z,83.30
2019-01-16T00:35:41.247Z,83.21
2019-01-16T00:38:25.414Z,82.96
2019-01-16T00:41:10.789Z,83.22
2019-01-16T00:43:56.846Z,83.40
2019-01-16T00:46:36.649Z,83.14
2019-01-16T00:49:22.825Z,82.87
2019-01-16T00:52:26.427Z,83.23
2019-01-16T00:55:28.837Z,83.36
2019-01-16T00:58:14.622Z,83.13
2019-01-16T01:01:01.821Z,82.94
2019-01-16T01:04:04.073Z,83.48
2019-01-16T01:07:00.110Z,83.34
2019-01-16T01:09:50.057Z,83.53
2019-01-16T01:12:38.139Z,83.07
2019-01-16T01:15:13.961Z,83.09
2019-01-16T01:18:01.118Z,83.01
2019-01-16T01:20:53.759Z,83.47
2019-01-16T01:23:40.912Z,83.25
2019-01-16T01:26:28.046Z,83.24
2019-01-16T01:29:13.907Z,82.91
2019-01-16T01:32:19.431Z,83.30
2019-01-16T01:35:12.266Z,83.36
2019-01-16T01:37:57.784Z,83.18
2019-01-16T01:41:03.013Z,83.11
2019-01-16T01:43:50.122Z,83.02
2019-01-16T01:46:36.104Z,82.98
2019-01-16T01:49:29.093Z,83.04
2019-01-16T01:52:15.077Z,82.93
2019-01-16T01:54:57.997Z,82.96
2019-01-16T01:57:51.033Z,83.11
2019-01-16T02:00:53.424Z,83.10
2019-01-16T02:03:58.702Z,82.87
2019-01-16T02:06:44.546Z,83.07
2019-01-16T02:09:43.776Z,82.99
2019-01-16T02:12:20.924Z,82.69
2019-01-16T02:14:59.049Z,83.03
2019-01-16T02:17:52.282Z,82.74
2019-01-16T02:20:53.165Z,83.04
2019-01-16T02:23:52.579Z,82.76
2019-01-16T02:26:39.145Z,82.71
2019-01-16T02:29:26.308Z,83.15
2019-01-16T02:32:16.297Z,82.76
2019-01-16T02:35:12.454Z,83.19
2019-01-16T02:37:51.027Z,82.89
2019-01-16T02:40:48.671Z,82.88
2019-01-16T02:43:35.873Z,82.73
2019-01-16T02:46:26.006Z,82.39
2019-01-16T02:49:13.300Z,82.22
2019-01-16T02:52:09.717Z,82.58
2019-01-16T02:54:48.845Z,82.29
2019-01-16T02:57:34.588Z,81.94
2019-01-16T03:00:21.735Z,81.91
2019-01-16T03:03:09.057Z,82.20
2019-01-16T03:05:58.929Z,82.44
2019-01-16T03:08:37.602Z,82.84
2019-01-16T03:11:27.135Z,82.97
2019-01-16T03:14:13.246Z,83.00
2019-01-16T03:17:15.318Z,83.01
2019-01-16T03:20:00.863Z,82.94
2019-01-16T03:22:47.100Z,83.20
2019-01-16T03:25:46.326Z,82.98
2019-01-16T03:28:36.861Z,83.08
2019-01-16T03:31:16.455Z,83.23
2019-01-16T03:34:06.606Z,83.29
2019-01-16T03:36:52.123Z,83.19
2019-01-16T03:39:46.140Z,83.31
2019-01-16T03:42:42.050Z,83.23
2019-01-16T03:45:22.429Z,83.49
2019-01-16T03:48:09.575Z,83.43
2019-01-16T03:51:06.019Z,83.31
2019-01-16T03:53:49.778Z,83.62
2019-01-16T03:56:39.546Z,83.66
2019-01-16T03:59:25.677Z,83.72
2019-01-16T04:02:18.808Z,83.87
2019-01-16T04:05:04.597Z,83.92
2019-01-16T04:08:01.120Z,84.15
2019-01-16T04:11:06.738Z,84.18
2019-01-16T04:13:53.206Z,83.96
2019-01-16T04:16:49.564Z,84.00
2019-01-16T04:19:39.547Z,83.54
2019-01-16T04:22:39.568Z,83.81
2019-01-16T04:25:26.822Z,84.05
2019-01-16T04:28:12.702Z,84.07
2019-01-16T04:31:05.909Z,84.28
2019-01-16T04:33:59.473Z,84.13
2019-01-16T04:36:55.589Z,83.90
2019-01-16T04:39:45.208Z,83.85
2019-01-16T04:42:41.106Z,83.27
2019-01-16T04:45:20.399Z,83.34
2019-01-16T04:48:16.648Z,83.29
2019-01-16T04:51:12.525Z,83.15
2019-01-16T04:54:03.921Z,83.01
2019-01-16T04:57:09.241Z,83.01
2019-01-16T04:59:59.145Z,82.65
2019-01-16T05:02:44.780Z,82.69
2019-01-16T05:05:30.592Z,82.95
2019-01-16T05:08:20.506Z,83.12
2019-01-16T05:11:16.712Z,83.03
2019-01-16T05:14:01.048Z,82.96
2019-01-16T05:16:39.490Z,83.09
2019-01-16T05:19:38.564Z,83.22
2019-01-16T05:22:27.600Z,83.38
2019-01-16T05:25:17.562Z,83.83
2019-01-16T05:28:03.739Z,83.86
2019-01-16T05:31:01.725Z,83.76
2019-01-16T05:33:37.602Z,83.86
2019-01-16T05:36:30.795Z,84.54
2019-01-16T05:39:18.430Z,84.83
2019-01-16T05:42:05.136Z,84.69
2019-01-16T05:44:56.979Z,84.27
2019-01-16T05:47:53.316Z,84.18
2019-01-16T05:50:32.431Z,84.09
2019-01-16T05:53:25.623Z,84.30
2019-01-16T05:56:27.947Z,84.39
2019-01-16T05:59:11.349Z,84.21
2019-01-16T06:01:58.638Z,84.10
2019-01-16T06:04:53.436Z,84.63
2019-01-16T06:07:35.446Z,84.91
2019-01-16T06:10:29.594Z,85.09
2019-01-16T06:13:24.690Z,85.39
2019-01-16T06:16:14.804Z,85.15
2019-01-16T06:19:07.690Z,85.39
2019-01-16T06:21:53.375Z,85.41
2019-01-16T06:24:39.202Z,85.27
2019-01-16T06:27:29.534Z,85.88
2019-01-16T06:30:26.037Z,85.55
2019-01-16T06:33:11.515Z,85.29
2019-01-16T06:35:57.245Z,85.53
2019-01-16T06:38:50.582Z,85.75
2019-01-16T06:41:55.598Z,85.87
2019-01-16T06:44:42.666Z,85.65
2019-01-16T06:47:21.552Z,85.57
2019-01-16T06:50:17.575Z,85.46
2019-01-16T06:53:04.718Z,85.88
2019-01-16T06:55:54.442Z,85.98
2019-01-16T06:58:34.320Z,86.32
2019-01-16T07:01:13.391Z,86.75
2019-01-16T07:04:07.716Z,86.74
2019-01-16T07:06:55.796Z,86.74
2019-01-16T07:09:36.070Z,86.42
2019-01-16T07:12:32.162Z,85.88
2019-01-16T07:15:18.296Z,85.64
2019-01-16T07:18:11.657Z,85.86
2019-01-16T07:20:48.230Z,86.33
2019-01-16T07:23:40.935Z,86.37
2019-01-16T07:26:39.928Z,86.31
2019-01-16T07:29:41.998Z,85.94
2019-01-16T07:32:47.449Z,85.92
2019-01-16T07:35:43.667Z,85.53
2019-01-16T07:38:22.548Z,85.42
2019-01-16T07:41:08.196Z,84.98
2019-01-16T07:43:53.917Z,85.29
2019-01-16T07:46:31.549Z,85.05
2019-01-16T07:49:21.538Z,84.90
2019-01-16T07:52:17.540Z,85.18
2019-01-16T07:55:06.066Z,84.87
2019-01-16T07:57:44.538Z,84.49
2019-01-16T08:00:32.364Z,84.34
2019-01-16T08:03:19.579Z,84.74
2019-01-16T08:06:05.139Z,84.69
2019-01-16T08:08:55.092Z,84.56
2019-01-16T08:11:36.048Z,84.64
2019-01-16T08:14:21.807Z,84.42
2019-01-16T08:17:08.459Z,84.64
2019-01-16T08:19:51.702Z,84.49
2019-01-16T08:22:29.687Z,84.44
2019-01-16T08:25:17.257Z,84.04
2019-01-16T08:28:13.612Z,83.72
2019-01-16T08:31:07.520Z,83.29
2019-01-16T08:33:57.818Z,82.93
2019-01-16T08:36:42.580Z,81.98
2019-01-16T08:39:29.676Z,82.95
2019-01-16T08:42:15.400Z,82.55
2019-01-16T08:45:08.402Z,81.99
2019-01-16T08:47:54.068Z,82.54
2019-01-16T08:50:51.716Z,81.79
2019-01-16T08:53:51.006Z,81.55
2019-01-16T08:56:44.217Z,81.72
2019-01-16T08:59:35.593Z,80.80
2019-01-16T09:02:32.079Z,80.59
2019-01-16T09:05:17.861Z,80.26
2019-01-16T09:08:17.376Z,80.40
2019-01-16T09:11:05.533Z,80.77
2019-01-16T09:13:50.295Z,80.58
2019-01-16T09:16:37.584Z,80.54
2019-01-16T09:19:29.126Z,80.48
2019-01-16T09:22:22.484Z,79.69
2019-01-16T09:25:18.471Z,79.84
2019-01-16T09:28:08.487Z,79.67
2019-01-16T09:31:07.821Z,79.55
2019-01-16T09:34:00.814Z,80.07
2019-01-16T09:36:50.888Z,78.89
2019-01-16T09:39:41.391Z,78.87
2019-01-16T09:42:32.288Z,78.74
2019-01-16T09:45:27.020Z,78.65
2019-01-16T09:48:14.558Z,78.26
2019-01-16T09:51:04.496Z,77.94
2019-01-16T09:54:06.673Z,77.56
2019-01-16T09:56:59.873Z,77.53
2019-01-16T09:59:59.502Z,76.73
2019-01-16T10:02:45.047Z,76.44
2019-01-16T10:05:30.756Z,75.54
2019-01-16T10:08:20.585Z,75.50
2019-01-16T10:11:10.514Z,75.87
2019-01-16T10:14:05.109Z,75.11
2019-01-16T10:17:10.629Z,74.61
2019-01-16T10:19:56.855Z,73.98
2019-01-16T10:22:58.833Z,73.59
2019-01-16T10:25:53.274Z,73.42
2019-01-16T10:28:36.806Z,72.96
2019-01-16T10:31:23.915Z,72.44
2019-01-16T10:34:11.017Z,72.33
2019-01-16T10:37:03.832Z,72.66
2019-01-16T10:39:50.938Z,72.61
2019-01-16T10:42:41.405Z,72.57
2019-01-16T10:45:19.699Z,73.78
2019-01-16T10:48:09.749Z,74.35
2019-01-16T10:50:46.983Z,75.15
2019-01-16T10:53:43.198Z,75.36
2019-01-16T10:56:45.519Z,75.99
2019-01-16T10:59:50.784Z,75.79
2019-01-16T11:02:38.053Z,75.19
2019-01-16T11:05:33.921Z,75.73
2019-01-16T11:08:08.719Z,76.45
2019-01-16T11:10:58.707Z,76.46
2019-01-16T11:13:57.926Z,76.28
2019-01-16T11:16:43.882Z,76.89
2019-01-16T11:19:43.175Z,77.06
2019-01-16T11:22:26.804Z,76.89
2019-01-16T11:25:29.153Z,76.81
2019-01-16T11:28:25.247Z,76.64
2019-01-16T11:31:18.023Z,77.06
2019-01-16T11:34:05.232Z,76.91
2019-01-16T11:36:58.283Z,77.07
2019-01-16T11:39:53.917Z,76.87
2019-01-16T11:42:39.679Z,77.03
2019-01-16T11:45:25.395Z,76.90
2019-01-16T11:48:08.310Z,76.80
2019-01-16T11:51:10.473Z,76.60
2019-01-16T11:54:00.280Z,77.48
2019-01-16T11:56:44.213Z,77.55
2019-01-16T11:59:29.764Z,77.27
2019-01-16T12:02:38.374Z,77.01
2019-01-16T12:05:30.132Z,77.89
2019-01-16T12:08:17.377Z,78.18
2019-01-16T12:11:03.212Z,78.56
2019-01-16T12:14:02.389Z,78.52
2019-01-16T12:16:48.224Z,78.37
2019-01-16T12:19:27.458Z,78.08
2019-01-16T12:22:12.698Z,78.57
2019-01-16T12:24:51.289Z,78.28
2019-01-16T12:27:36.645Z,78.50
2019-01-16T12:30:27.517Z,78.33
2019-01-16T12:33:10.149Z,78.74
2019-01-16T12:35:57.381Z,78.57
2019-01-16T12:38:56.334Z,78.48
2019-01-16T12:41:59.379Z,78.58
2019-01-16T12:44:44.511Z,78.14
2019-01-16T12:47:46.601Z,78.94
2019-01-16T12:50:52.007Z,78.33
2019-01-16T12:53:44.866Z,79.05
2019-01-16T12:56:43.867Z,79.20
2019-01-16T12:59:46.226Z,78.94
2019-01-16T13:02:31.929Z,79.19
2019-01-16T13:05:34.257Z,79.32
2019-01-16T13:08:24.054Z,79.73
2019-01-16T13:11:11.191Z,79.26
2019-01-16T13:13:58.408Z,79.23
2019-01-16T13:16:44.230Z,79.82
2019-01-16T13:19:46.657Z,79.57
2019-01-16T13:22:28.753Z,79.25
2019-01-16T13:25:16.040Z,79.65
2019-01-16T13:28:10.039Z,79.26
2019-01-16T13:31:06.119Z,78.94
2019-01-16T13:33:59.833Z,78.86
2019-01-16T13:36:41.034Z,78.72
2019-01-16T13:39:26.072Z,78.96
2019-01-16T13:42:11.807Z,79.78
2019-01-16T13:45:01.519Z,79.73
2019-01-16T13:48:04.279Z,79.09
2019-01-16T13:50:42.829Z,79.05
2019-01-16T13:53:30.030Z,78.69
2019-01-16T13:56:15.535Z,78.29
2019-01-16T13:59:02.635Z,78.63
2019-01-16T14:01:47.049Z,79.07
2019-01-16T14:04:37.102Z,78.90
2019-01-16T14:07:27.399Z,79.41
2019-01-16T14:10:13.325Z,79.35
2019-01-16T14:12:59.226Z,79.33
2019-01-16T14:15:43.897Z,79.63
2019-01-16T14:18:26.680Z,79.32
2019-01-16T14:21:16.709Z,78.87
2019-01-16T14:24:20.229Z,78.90
2019-01-16T14:27:15.714Z,78.87
2019-01-16T14:29:54.385Z,78.77
2019-01-16T14:32:41.579Z,78.96
2019-01-16T14:35:43.769Z,78.86
2019-01-16T14:38:37.426Z,79.03
2019-01-16T14:41:22.890Z,78.79
2019-01-16T14:44:12.849Z,78.70
2019-01-16T14:46:58.414Z,78.82
2019-01-16T14:50:00.739Z,78.17
2019-01-16T14:52:46.168Z,78.03
2019-01-16T14:55:30.742Z,78.45
2019-01-16T14:58:20.363Z,78.46
2019-01-16T15:01:06.145Z,78.61
2019-01-16T15:03:59.623Z,78.67
2019-01-16T15:06:46.811Z,78.98
2019-01-16T15:09:35.834Z,79.10
2019-01-16T15:12:23.346Z,78.71
2019-01-16T15:15:14.030Z,78.80
2019-01-16T15:17:54.119Z,79.29
2019-01-16T15:20:39.589Z,79.35
2019-01-16T15:23:31.248Z,79.50
2019-01-16T15:26:18.441Z,79.57
2019-01-16T15:29:08.943Z,79.39
2019-01-16T15:32:01.845Z,79.26
2019-01-16T15:34:56.076Z,79.34
2019-01-16T15:37:42.042Z,79.60
2019-01-16T15:40:42.711Z,79.89
2019-01-16T15:43:23.841Z,80.10
2019-01-16T15:46:22.787Z,80.37
2019-01-16T15:49:12.307Z,80.69
2019-01-16T15:51:59.452Z,80.74
2019-01-16T15:54:44.926Z,80.75
2019-01-16T15:57:24.724Z,81.21
2019-01-16T16:00:17.744Z,81.21
2019-01-16T16:02:59.566Z,81.53
2019-01-16T16:05:55.573Z,81.49
2019-01-16T16:08:41.507Z,81.54
2019-01-16T16:11:31.834Z,81.66
2019-01-16T16:14:34.207Z,81.73
2019-01-16T16:17:33.484Z,82.25
2019-01-16T16:20:20.788Z,82.10
2019-01-16T16:23:20.005Z,82.02
2019-01-16T16:26:10.388Z,82.28
2019-01-16T16:28:56.452Z,82.30
2019-01-16T16:31:41.971Z,82.19
2019-01-16T16:34:27.881Z,81.88
2019-01-16T16:37:15.017Z,81.76
2019-01-16T16:40:02.189Z,82.64
2019-01-16T16:42:46.625Z,82.46
2019-01-16T16:45:33.874Z,82.83
2019-01-16T16:48:24.691Z,82.55
2019-01-16T16:51:21.007Z,82.35
2019-01-16T16:54:06.534Z,82.53
2019-01-16T16:56:52.590Z,82.66
2019-01-16T16:59:34.336Z,82.56
2019-01-16T17:02:30.400Z,83.09
2019-01-16T17:05:24.935Z,82.89
2019-01-16T17:08:15.573Z,82.73
2019-01-16T17:10:58.865Z,83.18
2019-01-16T17:13:52.070Z,83.20
2019-01-16T17:16:34.153Z,82.98
2019-01-16T17:19:19.925Z,83.16
2019-01-16T17:22:19.613Z,83.33
2019-01-16T17:25:09.930Z,83.67
2019-01-16T17:27:55.831Z,84.10
2019-01-16T17:30:49.217Z,83.69
2019-01-16T17:33:32.432Z,83.62
2019-01-16T17:36:09.675Z,83.88
2019-01-16T17:38:55.173Z,83.65
2019-01-16T17:41:41.210Z,83.61
2019-01-16T17:44:27.161Z,84.15
2019-01-16T17:47:23.639Z,83.94
2019-01-16T17:50:11.394Z,83.73
2019-01-16T17:52:57.271Z,83.74
2019-01-16T17:55:43.181Z,84.04
2019-01-16T17:58:36.652Z,84.27
2019-01-16T18:01:33.606Z,84.21
2019-01-16T18:04:12.377Z,84.07
2019-01-16T18:06:58.895Z,84.04
2019-01-16T18:09:55.005Z,84.39
2019-01-16T18:12:48.196Z,84.46
2019-01-16T18:15:41.061Z,84.54
2019-01-16T18:18:29.695Z,84.37
2019-01-16T18:21:19.905Z,84.47
2019-01-16T18:24:08.429Z,84.86
2019-01-16T18:26:59.345Z,85.00
2019-01-16T18:29:57.184Z,84.90
2019-01-16T18:32:50.495Z,84.86
2019-01-16T18:35:53.249Z,84.70
2019-01-16T18:38:41.466Z,84.36
2019-01-16T18:41:31.748Z,84.53
2019-01-16T18:44:28.257Z,84.75
2019-01-16T18:47:15.523Z,84.68
2019-01-16T18:50:02.792Z,84.72
2019-01-16T18:53:01.745Z,84.81
2019-01-16T18:55:48.775Z,84.56
2019-01-16T18:58:34.904Z,84.82
2019-01-16T19:01:28.239Z,85.01
2019-01-16T19:04:06.650Z,85.04
2019-01-16T19:06:56.607Z,85.25
2019-01-16T19:10:02.165Z,85.26
2019-01-16T19:12:49.426Z,85.13
2019-01-16T19:15:24.087Z,85.53
2019-01-16T19:18:01.939Z,85.39
2019-01-16T19:20:46.702Z,85.36
2019-01-16T19:23:23.308Z,85.69
2019-01-16T19:26:03.953Z,85.62
2019-01-16T19:28:51.203Z,85.65
2019-01-16T19:31:36.831Z,85.46
2019-01-16T19:34:30.056Z,85.38
2019-01-16T19:37:09.245Z,85.40
2019-01-16T19:39:53.798Z,85.88
2019-01-16T19:42:44.119Z,85.62
2019-01-16T19:45:31.446Z,85.97
2019-01-16T19:48:16.372Z,85.92
2019-01-16T19:51:06.330Z,86.07
2019-01-16T19:53:56.036Z,85.95
2019-01-16T19:56:35.363Z,85.86
2019-01-16T19:59:31.635Z,85.90
2019-01-16T20:02:19.152Z,86.32
2019-01-16T20:05:01.671Z,86.14
2019-01-16T20:07:48.901Z,85.85
2019-01-16T20:10:44.872Z,86.21
2019-01-16T20:13:43.919Z,86.25
2019-01-16T20:16:19.938Z,86.16
2019-01-16T20:19:12.184Z,86.14
2019-01-16T20:22:08.395Z,86.32
2019-01-16T20:24:48.306Z,86.22
2019-01-16T20:27:33.984Z,86.41
2019-01-16T20:30:21.204Z,86.31
2019-01-16T20:33:20.406Z,86.18
2019-01-16T20:36:14.904Z,86.46
2019-01-16T20:39:02.177Z,86.53
2019-01-16T20:41:51.134Z,86.70
2019-01-16T20:44:36.859Z,86.86
2019-01-16T20:47:29.065Z,87.03
2019-01-16T20:50:16.106Z,87.46
2019-01-16T20:53:01.496Z,87.29
2019-01-16T20:55:47.182Z,87.22
2019-01-16T20:58:37.007Z,87.41
2019-01-16T21:01:23.109Z,87.27
2019-01-16T21:04:09.182Z,87.09
2019-01-16T21:06:53.446Z,87.09
2019-01-16T21:09:43.225Z,87.06
2019-01-16T21:12:32.618Z,87.23
2019-01-16T21:15:25.653Z,87.32
2019-01-16T21:18:13.074Z,87.26
2019-01-16T21:20:58.238Z,87.21
2019-01-16T21:23:54.294Z,87.58
2019-01-16T21:26:39.892Z,87.24
2019-01-16T21:29:25.546Z,87.16
2019-01-16T21:32:12.713Z,87.10
2019-01-16T21:34:59.804Z,87.35
2019-01-16T21:37:34.449Z,87.73
2019-01-16T21:40:22.693Z,87.49
2019-01-16T21:43:08.179Z,87.60
2019-01-16T21:45:54.197Z,87.41
2019-01-16T21:48:32.644Z,87.58
2019-01-16T21:51:25.623Z,87.74
2019-01-16T21:54:15.682Z,87.88
2019-01-16T21:57:01.205Z,88.01
2019-01-16T21:59:54.164Z,88.14
2019-01-16T22:02:40.377Z,87.94
2019-01-16T22:05:16.803Z,87.83
2019-01-16T22:08:03.966Z,88.19
2019-01-16T22:10:49.375Z,88.15
2019-01-16T22:13:42.158Z,88.27
2019-01-16T22:16:34.851Z,88.20
2019-01-16T22:19:13.246Z,88.59
2019-01-16T22:21:59.633Z,88.95
2019-01-16T22:24:45.341Z,88.76
2019-01-16T22:27:30.891Z,88.50
2019-01-16T22:30:33.695Z,88.27
2019-01-16T22:33:09.650Z,88.34
2019-01-16T22:36:02.531Z,88.22
2019-01-16T22:38:45.111Z,88.76
2019-01-16T22:41:30.961Z,88.52
2019-01-16T22:44:20.978Z,88.77
2019-01-16T22:47:11.030Z,89.05
2019-01-16T22:50:04.328Z,88.88
2019-01-16T22:52:51.572Z,88.45
2019-01-16T22:55:48.034Z,88.61
2019-01-16T22:58:38.303Z,89.02
2019-01-16T23:01:17.328Z,89.14
2019-01-16T23:04:07.204Z,89.58
2019-01-16T23:07:00.444Z,89.76
2019-01-16T23:09:37.174Z,90.12
2019-01-16T23:12:24.276Z,89.86
2019-01-16T23:15:26.593Z,89.60
2019-01-16T23:18:14.543Z,89.82
2019-01-16T23:21:05.432Z,89.89
2019-01-16T23:24:01.440Z,89.33
2019-01-16T23:27:03.782Z,89.61
2019-01-16T23:29:53.472Z,89.84
2019-01-16T23:32:40.617Z,90.33
2019-01-16T23:35:36.822Z,89.72
2019-01-16T23:38:35.974Z,89.71
2019-01-16T23:41:38.108Z,89.97
2019-01-16T23:44:24.997Z,90.39
2019-01-16T23:47:05.541Z,89.87
2019-01-16T23:49:51.257Z,90.49
2019-01-16T23:52:47.136Z,90.18
2019-01-16T23:55:32.782Z,90.19
2019-01-16T23:58:19.918Z,90.60
